クアラルンプール の空港の天気 - METARとTAF

クアラルンプール国際空港 ( WMKK / KUL ) - マレーシア スランゴール州セパン
飛行場実況気象(Metar)
観測時間12/01 03:30 MYT (11/30 19:30 UTC)
風向・風速静穏 0m/s
視程9000m
天気現象
少しの雲 雲底高度 240m
少しの雲 雲底高度 520m
全天の4割程度の雲 雲底高度 910m
気温25℃
湿度94%
気圧1009hPa
METARWMKK 301930Z 00000KT 9000 FEW008 FEW017CB SCT030 25/24 Q1009 NOSIG
過去の天気等 Google飛行場航空写真 Wunderground天気予報

過去48時間のMETAR

飛行場予報(TAF)
発表時間: 12/01 01:00 MYT (11/30 17:00 UTC)
予報対象時間: 1日2時 MYT ~ 2日8時 MYT
風向・風速南西 3m/s
視程10km以上
少しの積乱雲 雲底高度 520m
1日4時 MYT ~ 1日8時 MYT に 確率 30% で一時的に
視程5000m
天気現象雷雨
少しの雲 雲底高度 240m
少しの積乱雲 雲底高度 520m
全天の4割程度の雲 雲底高度 760m
1日12時 MYT ~ 1日16時 MYT に一時的に
視程5000m
天気現象しゅう雨
少しの雲 雲底高度 300m
少しの積乱雲 雲底高度 490m
全天の4割程度の雲 雲底高度 610m
TAF WMKK 301700Z 3018/0200 22005KT 9999 FEW017CB
PROB30 TEMPO 3020/0100 5000 TSRA FEW008 FEW017CB SCT025
TEMPO 0104/0108 5000 SHRA FEW010 FEW016CB SCT020